Time;durP1;ratioP1;P1;durP2;ratioP2;P2;SDS_P1;SDS_P2;PMS_P1;PMS_P2;Temp;Humidity;BMP_temperature;BMP_pressure;BME280_temperature;BME280_humidity;BME280_pressure;Samples;Min_cycle;Max_cycle;Signal;HPM_P1;HPM_P2
2023/06/13 00:03:53;;;;;;;4.38;1.98;;;;;;;;;;20996871;28;20052;-70
2023/06/13 00:13:55;;;;;;;4.78;2.10;;;;;;;;;;20996528;28;20072;-69
2023/06/13 00:23:56;;;;;;;6.25;2.58;;;;;;;;;;20996102;28;20074;-70
2023/06/13 00:33:57;;;;;;;7.88;3.03;;;;;;;;;;20994924;28;20048;-69
2023/06/13 00:43:59;;;;;;;5.78;2.95;;;;;;;;;;20995354;28;20055;-70
2023/06/13 00:54:01;;;;;;;16.20;4.65;;;;;;;;;;20995267;28;20551;-71
2023/06/13 01:04:03;;;;;;;5.97;2.80;;;;;;;;;;20997764;28;20045;-69
2023/06/13 01:14:04;;;;;;;6.40;2.60;;;;;;;;;;21008007;28;20098;-69
2023/06/13 01:24:07;;;;;;;5.65;2.70;;;;;;;;;;21008621;28;20044;-69
2023/06/13 01:34:08;;;;;;;5.57;2.88;;;;;;;;;;21007667;28;20183;-70
2023/06/13 01:44:12;;;;;;;3.78;2.08;;;;;;;;;;21006926;28;20123;-70
2023/06/13 01:54:15;;;;;;;4.38;2.15;;;;;;;;;;21005092;28;20037;-69
2023/06/13 02:04:16;;;;;;;5.30;2.75;;;;;;;;;;21004075;28;20045;-69
2023/06/13 02:14:17;;;;;;;7.50;2.45;;;;;;;;;;21002618;28;20115;-69
2023/06/13 02:24:19;;;;;;;4.88;2.88;;;;;;;;;;21002417;28;20044;-69
2023/06/13 02:34:20;;;;;;;4.00;2.40;;;;;;;;;;21001501;28;20063;-70
2023/06/13 02:44:21;;;;;;;6.88;2.80;;;;;;;;;;21001903;28;20105;-69
2023/06/13 02:54:22;;;;;;;4.50;2.60;;;;;;;;;;21001232;28;20048;-70
2023/06/13 03:04:23;;;;;;;5.82;2.70;;;;;;;;;;21000350;28;20051;-69
2023/06/13 03:14:25;;;;;;;5.60;2.00;;;;;;;;;;20998422;28;20049;-69
2023/06/13 03:24:26;;;;;;;4.80;2.17;;;;;;;;;;20998685;28;20079;-70
2023/06/13 03:34:28;;;;;;;5.75;2.65;;;;;;;;;;20996559;28;20067;-70
2023/06/13 03:44:30;;;;;;;3.35;2.08;;;;;;;;;;20997966;28;20119;-69
2023/06/13 03:54:31;;;;;;;3.80;2.22;;;;;;;;;;20997513;28;20430;-68
2023/06/13 04:04:33;;;;;;;7.30;2.45;;;;;;;;;;20996963;28;20482;-69
2023/06/13 04:14:34;;;;;;;4.22;2.47;;;;;;;;;;20996812;28;20482;-70
2023/06/13 04:24:36;;;;;;;4.38;2.10;;;;;;;;;;20996424;28;20494;-69
2023/06/13 04:34:41;;;;;;;5.28;2.10;;;;;;;;;;20994787;28;20103;-70
2023/06/13 04:44:45;;;;;;;5.75;2.90;;;;;;;;;;21009320;28;20036;-70
2023/06/13 04:54:47;;;;;;;7.97;4.32;;;;;;;;;;21010571;28;20052;-69
2023/06/13 05:04:49;;;;;;;8.77;4.28;;;;;;;;;;21008816;28;20048;-70
2023/06/13 05:14:50;;;;;;;22.98;15.95;;;;;;;;;;21007891;28;20043;-69
2023/06/13 05:24:51;;;;;;;11.32;5.35;;;;;;;;;;21008611;28;20047;-69
2023/06/13 05:34:52;;;;;;;7.53;4.88;;;;;;;;;;21006608;28;20086;-70
2023/06/13 05:44:53;;;;;;;6.90;3.90;;;;;;;;;;21007082;28;20502;-70
2023/06/13 05:54:54;;;;;;;6.45;3.97;;;;;;;;;;21005020;28;20051;-70
2023/06/13 06:04:56;;;;;;;8.10;3.90;;;;;;;;;;21003480;28;20048;-69
2023/06/13 06:14:57;;;;;;;8.52;4.30;;;;;;;;;;21004117;28;20093;-70
2023/06/13 06:24:58;;;;;;;7.13;3.90;;;;;;;;;;21003563;28;20047;-70
2023/06/13 06:35:01;;;;;;;8.23;3.78;;;;;;;;;;21001203;28;20049;-69
2023/06/13 06:45:02;;;;;;;8.27;3.55;;;;;;;;;;21001604;28;20489;-69
2023/06/13 06:55:04;;;;;;;7.97;3.60;;;;;;;;;;21001012;28;20041;-69
2023/06/13 07:05:06;;;;;;;4.70;2.75;;;;;;;;;;20998062;28;20056;-70
2023/06/13 07:15:07;;;;;;;6.03;2.83;;;;;;;;;;20997836;28;20044;-70
2023/06/13 07:25:09;;;;;;;7.50;3.25;;;;;;;;;;20998375;28;20119;-70
2023/06/13 07:35:10;;;;;;;8.80;3.42;;;;;;;;;;20996955;28;20061;-70
2023/06/13 07:45:12;;;;;;;7.25;3.75;;;;;;;;;;20997521;28;20444;-70
2023/06/13 07:55:14;;;;;;;7.78;3.28;;;;;;;;;;20995744;28;20049;-70
2023/06/13 08:05:15;;;;;;;6.75;3.05;;;;;;;;;;20995301;28;20084;-70
2023/06/13 08:15:17;;;;;;;7.32;3.15;;;;;;;;;;21002865;28;20543;-69
2023/06/13 08:25:18;;;;;;;5.57;2.75;;;;;;;;;;21012381;28;20440;-68
2023/06/13 08:35:19;;;;;;;4.22;2.70;;;;;;;;;;21010657;28;20056;-71
2023/06/13 08:45:21;;;;;;;6.63;3.63;;;;;;;;;;21011166;28;20040;-71
2023/06/13 08:55:23;;;;;;;6.00;3.28;;;;;;;;;;21010308;28;20482;-69
2023/06/13 09:05:24;;;;;;;5.22;3.03;;;;;;;;;;21008405;28;20050;-68
2023/06/13 09:15:26;;;;;;;5.90;3.25;;;;;;;;;;21009034;28;20094;-66
2023/06/13 09:25:30;;;;;;;4.82;2.78;;;;;;;;;;21006823;28;20050;-66
2023/06/13 09:35:32;;;;;;;8.00;3.22;;;;;;;;;;21006124;28;20131;-66
2023/06/13 09:45:33;;;;;;;6.40;3.20;;;;;;;;;;21004911;28;20079;-65
2023/06/13 09:55:36;;;;;;;5.75;3.22;;;;;;;;;;21004480;28;20048;-64
2023/06/13 10:05:38;;;;;;;6.60;3.17;;;;;;;;;;21004676;28;20460;-68
2023/06/13 10:15:48;;;;;;;6.22;2.63;;;;;;;;;;21003993;28;20047;-69
2023/06/13 10:25:54;;;;;;;7.35;3.30;;;;;;;;;;21003148;28;20478;-64
2023/06/13 10:36:04;;;;;;;4.88;3.05;;;;;;;;;;20999938;28;20056;-69
2023/06/13 10:46:08;;;;;;;6.70;2.85;;;;;;;;;;21001002;28;20053;-75
2023/06/13 10:56:10;;;;;;;4.45;2.47;;;;;;;;;;21000269;28;20040;-70
2023/06/13 11:06:16;;;;;;;7.90;2.70;;;;;;;;;;20999119;28;20049;-73
2023/06/13 11:16:19;;;;;;;3.22;1.52;;;;;;;;;;20999194;28;20397;-67
2023/06/13 11:26:21;;;;;;;2.95;1.50;;;;;;;;;;20997432;28;20040;-68
2023/06/13 11:36:24;;;;;;;4.28;1.42;;;;;;;;;;20997290;28;20048;-67
2023/06/13 11:46:25;;;;;;;3.90;1.80;;;;;;;;;;20995383;28;20098;-67
2023/06/13 11:56:27;;;;;;;2.75;1.70;;;;;;;;;;20996263;28;20077;-66
2023/06/13 12:06:28;;;;;;;4.53;1.52;;;;;;;;;;20996797;28;20134;-68
2023/06/13 12:16:36;;;;;;;1.70;1.25;;;;;;;;;;20996148;28;20040;-67
2023/06/13 12:26:43;;;;;;;1.83;1.00;;;;;;;;;;20995708;28;20037;-66
2023/06/13 12:36:45;;;;;;;1.67;0.73;;;;;;;;;;20995706;28;20508;-67
2023/06/13 12:46:46;;;;;;;2.28;0.90;;;;;;;;;;20993661;28;20040;-67
2023/06/13 12:56:59;;;;;;;1.63;0.90;;;;;;;;;;20993669;28;20115;-67
2023/06/13 13:07:00;;;;;;;2.85;1.02;;;;;;;;;;21009485;28;20052;-68
2023/06/13 13:17:02;;;;;;;2.33;0.85;;;;;;;;;;21009094;28;20116;-67
2023/06/13 13:27:03;;;;;;;2.10;1.10;;;;;;;;;;21006476;28;20110;-67
2023/06/13 13:37:05;;;;;;;2.03;1.52;;;;;;;;;;21007680;28;20151;-68
2023/06/13 13:47:06;;;;;;;2.97;1.88;;;;;;;;;;21005815;28;20048;-67
2023/06/13 13:57:07;;;;;;;2.75;1.38;;;;;;;;;;21004586;28;20036;-68
2023/06/13 14:07:08;;;;;;;3.55;1.65;;;;;;;;;;21003447;28;20132;-68
2023/06/13 14:17:10;;;;;;;2.60;1.50;;;;;;;;;;21002047;28;20047;-68
2023/06/13 14:27:11;;;;;;;2.05;1.35;;;;;;;;;;21003449;28;20615;-67
2023/06/13 14:37:12;;;;;;;2.42;1.50;;;;;;;;;;21002851;28;20054;-67
2023/06/13 14:47:15;;;;;;;1.83;1.25;;;;;;;;;;21000336;28;20044;-67
2023/06/13 14:57:16;;;;;;;2.38;1.20;;;;;;;;;;20999431;28;20063;-67
2023/06/13 15:07:17;;;;;;;1.83;1.15;;;;;;;;;;20999292;28;20048;-67
2023/06/13 15:17:19;;;;;;;3.50;1.85;;;;;;;;;;20999134;28;20051;-67
2023/06/13 15:27:20;;;;;;;2.05;1.27;;;;;;;;;;20997120;28;20064;-67
2023/06/13 15:37:24;;;;;;;2.92;1.10;;;;;;;;;;20995357;28;20051;-62
2023/06/13 15:47:25;;;;;;;1.58;0.75;;;;;;;;;;20995987;28;20048;-62
2023/06/13 15:57:26;;;;;;;1.20;0.85;;;;;;;;;;20997286;28;20508;-65
2023/06/13 16:07:27;;;;;;;2.03;1.00;;;;;;;;;;20994390;28;20041;-60
2023/06/13 16:17:30;;;;;;;3.25;1.25;;;;;;;;;;20986775;28;20236;-64
2023/06/13 16:27:31;;;;;;;3.15;1.23;;;;;;;;;;20990619;28;20136;-65
2023/06/13 16:37:32;;;;;;;2.63;0.98;;;;;;;;;;21002771;28;20051;-60
2023/06/13 16:47:33;;;;;;;4.10;1.27;;;;;;;;;;21010097;28;20047;-66
2023/06/13 16:57:34;;;;;;;3.28;1.98;;;;;;;;;;21009972;28;20049;-61
2023/06/13 17:07:35;;;;;;;6.15;1.50;;;;;;;;;;21008599;28;20127;-65
2023/06/13 17:17:37;;;;;;;3.20;1.35;;;;;;;;;;21007535;28;20098;-69
2023/06/13 17:27:38;;;;;;;2.38;1.10;;;;;;;;;;21006869;28;20500;-62
2023/06/13 17:37:39;;;;;;;2.53;1.40;;;;;;;;;;21005816;28;20526;-65
2023/06/13 17:47:40;;;;;;;2.83;1.67;;;;;;;;;;21004305;28;20121;-73
2023/06/13 17:57:41;;;;;;;3.75;1.35;;;;;;;;;;21004914;28;20047;-69
2023/06/13 18:07:42;;;;;;;2.63;1.50;;;;;;;;;;21003882;28;20059;-66
2023/06/13 18:17:44;;;;;;;3.38;1.55;;;;;;;;;;21004383;28;20049;-64
2023/06/13 18:27:47;;;;;;;2.88;1.90;;;;;;;;;;21003587;28;20544;-65
2023/06/13 18:37:48;;;;;;;2.88;1.10;;;;;;;;;;21000521;28;20126;-66
2023/06/13 18:47:51;;;;;;;2.22;1.23;;;;;;;;;;21000398;28;20049;-65
2023/06/13 18:57:52;;;;;;;2.20;1.20;;;;;;;;;;20999567;28;20562;-65
2023/06/13 19:07:53;;;;;;;3.53;1.77;;;;;;;;;;20999178;28;20539;-65
2023/06/13 19:17:55;;;;;;;1.50;0.95;;;;;;;;;;20996908;28;20048;-64
2023/06/13 19:27:56;;;;;;;2.65;0.80;;;;;;;;;;20997051;28;20541;-64
2023/06/13 19:37:57;;;;;;;1.83;0.88;;;;;;;;;;20995663;28;20128;-65
2023/06/13 19:48:05;;;;;;;1.45;0.70;;;;;;;;;;20996762;28;20098;-66
2023/06/13 19:58:06;;;;;;;2.00;1.20;;;;;;;;;;20996045;28;20558;-65
2023/06/13 20:08:08;;;;;;;3.10;1.08;;;;;;;;;;20994840;28;20114;-65
2023/06/13 20:18:09;;;;;;;2.58;1.30;;;;;;;;;;20995558;28;20059;-64
2023/06/13 20:28:11;;;;;;;2.15;1.17;;;;;;;;;;20994024;28;20063;-65
2023/06/13 20:38:12;;;;;;;2.63;1.50;;;;;;;;;;20992737;28;20049;-64
2023/06/13 20:48:14;;;;;;;8.35;5.00;;;;;;;;;;20993127;28;20040;-65
2023/06/13 20:58:15;;;;;;;2.50;1.58;;;;;;;;;;20993764;28;20398;-65
2023/06/13 21:08:17;;;;;;;2.08;1.25;;;;;;;;;;20992878;28;20490;-65
2023/06/13 21:18:18;;;;;;;2.42;1.45;;;;;;;;;;20991905;28;20091;-65
2023/06/13 21:28:19;;;;;;;4.38;1.90;;;;;;;;;;21005283;28;20052;-64
2023/06/13 21:38:20;;;;;;;2.95;1.50;;;;;;;;;;21006391;28;20057;-65
2023/06/13 21:48:21;;;;;;;2.65;1.52;;;;;;;;;;21004683;28;20044;-64
2023/06/13 21:58:22;;;;;;;3.63;1.17;;;;;;;;;;21004881;28;20090;-65
2023/06/13 22:08:24;;;;;;;3.58;1.50;;;;;;;;;;21002636;28;20084;-65
2023/06/13 22:18:25;;;;;;;3.70;1.80;;;;;;;;;;21003255;28;20498;-64
2023/06/13 22:28:26;;;;;;;3.92;1.77;;;;;;;;;;21000544;28;20056;-65
2023/06/13 22:38:27;;;;;;;5.78;2.08;;;;;;;;;;21000384;28;20041;-64
2023/06/13 22:48:29;;;;;;;2.47;1.30;;;;;;;;;;21000282;28;20508;-65
2023/06/13 22:58:30;;;;;;;4.15;2.33;;;;;;;;;;20998584;28;20048;-64
2023/06/13 23:08:31;;;;;;;3.28;1.80;;;;;;;;;;20998030;28;20048;-65
2023/06/13 23:18:35;;;;;;;3.72;1.45;;;;;;;;;;20998667;28;20525;-65
2023/06/13 23:28:36;;;;;;;2.15;1.52;;;;;;;;;;20996712;28;20097;-64
2023/06/13 23:38:41;;;;;;;4.00;2.20;;;;;;;;;;20998935;28;20123;-65
2023/06/13 23:48:42;;;;;;;5.20;2.10;;;;;;;;;;20996789;28;20078;-64
2023/06/13 23:58:43;;;;;;;3.30;1.60;;;;;;;;;;20996373;28;20048;-65
